SondeTracker

Meteorological Radiosondes Database

Operations

Sounding was ended - last measurement: 2021-07-24 13:34:00z

MAP
About Radiosonde

Number: T0250239

Launch Site: Galeão (BR)

Type: Type=RS41

AUX: NO

Frequency: 403.050 MHz

Max Speed: 78 km/h at 14870 m

Average Speed: 27.07 km/h

Max Altitude: 22310 m

Average Ascent Speed: 5.34 m/s

Average Descent Speed: 5.05 m/s

Status: UNKNOWN

Status Changes
Launch Site Type AUX Frequency Status Finder Landing Point Description Changes made by
APRS Statistics

Received Frames: 147

First Frame [UTC]: 2021-07-24 11:41:30z

Last Frame [UTC]: 2021-07-24 13:34:00z

Receivers: PU1SDR-11

Flight Time: 01:52:30 h

Distance From First Measurement: 11.61 km

Nearest City: Duque de Caxias (BR) [7.24 km]

Nearest Hunter: PU1JDI-11 [23.16 km]

Ground Altitude: 5 m

Distance from QTH: 0.00 km

APRS Data
Receiver Number Date/Time [UTC] φ λ Course [°] Speed [km/h] Altitude [m] Description
PU1SDR-11T02502392021-07-24 13:34:00-22.7219-43.316212205644Type=RS41-SGP f=403.050 MHz Clb=-9.2m/s t=-6.6C p=517.7hPa h=2.4% batt=2.7V https://tracker.sondehub.org/T0250239 - https://radi
PU1SDR-11T02502392021-07-24 13:33:30-22.7227-43.316425155844Type=RS41-SGP f=403.050 MHz Clb=-11.5m/s t=-8.1C p=504.7hPa h=1.8% batt=2.6V https://tracker.sondehub.org/T0250239 - https://rad
PU1SDR-11T02502392021-07-24 13:33:00-22.7235-43.3168776105Type=RS41-SGP f=403.050 MHz Clb=-7.5m/s t=-9.5C p=487.8hPa h=1.6% batt=2.7V https://tracker.sondehub.org/T0250239 - https://radi
PU1SDR-11T02502392021-07-24 13:32:30-22.7242-43.3175096312Type=RS41-SGP f=403.050 MHz Clb=-6.1m/s t=-10.6C p=475.0hPa h=1.6% batt=2.7V https://tracker.sondehub.org/T0250239 - https://rad
PU1SDR-11T02502392021-07-24 13:32:00-22.7245-43.317760116418Type=RS41-SGP f=403.050 MHz Clb=-3.1m/s t=-11.0C p=468.3hPa h=2.7% batt=2.7V https://tracker.sondehub.org/T0250239 - https://rad
PU1SDR-11T02502392021-07-24 13:31:30-22.7248-43.31855696518Type=RS41-SGP f=403.050 MHz Clb=-3.2m/s t=-11.8C p=462.3hPa h=5.8% batt=2.7V https://tracker.sondehub.org/T0250239 - https://rad
PU1SDR-11T02502392021-07-24 13:31:00-22.7253-43.3194676617Type=RS41-SGP f=403.050 MHz Clb=-3.5m/s t=-12.6C p=456.4hPa h=7.4% batt=2.7V https://tracker.sondehub.org/T0250239 - https://rad
PU1SDR-11T02502392021-07-24 13:30:30-22.7257-43.31966196714Type=RS41-SGP f=403.050 MHz Clb=-3.1m/s t=-13.5C p=450.6hPa h=9.6% batt=2.7V https://tracker.sondehub.org/T0250239 - https://rad
PU1SDR-11T02502392021-07-24 13:30:00-22.7261-43.32037176810Type=RS41-SGP f=403.050 MHz Clb=-3.3m/s t=-14.3C p=444.9hPa h=10.2% batt=2.7V https://tracker.sondehub.org/T0250239 - https://ra
PU1SDR-11T02502392021-07-24 13:29:30-22.7265-43.3216376907Type=RS41-SGP f=403.050 MHz Clb=-3.5m/s t=-15.3C p=439.3hPa h=10.8% batt=2.6V https://tracker.sondehub.org/T0250239 - https://ra
PU1SDR-11T02502392021-07-24 13:29:00-22.727-43.32153877005Type=RS41-SGP f=403.050 MHz Clb=-3.3m/s t=-16.2C p=433.6hPa h=10.7% batt=2.7V https://tracker.sondehub.org/T0250239 - https://ra
PU1SDR-11T02502392021-07-24 13:28:30-22.7274-43.32184127107Type=RS41-SGP f=403.050 MHz Clb=-3.4m/s t=-16.9C p=427.7hPa h=6.6% batt=2.6V https://tracker.sondehub.org/T0250239 - https://rad
PU1SDR-11T02502392021-07-24 13:28:00-22.7272-43.32217667203Type=RS41-SGP f=403.050 MHz Clb=-3.5m/s t=-17.5C p=422.4hPa h=3.6% batt=2.7V https://tracker.sondehub.org/T0250239 - https://rad
PU1SDR-11T02502392021-07-24 13:27:30-22.7263-43.3221181177300Type=RS41-SGP f=403.050 MHz Clb=-3.1m/s t=-17.9C p=417.0hPa h=-1.0% batt=2.6V https://tracker.sondehub.org/T0250239 - https://ra
PU1SDR-11T02502392021-07-24 13:27:00-22.7248-43.3221177197396Type=RS41-SGP f=403.050 MHz Clb=-3.1m/s t=-17.9C p=411.6hPa h=-1.0% batt=2.7V https://tracker.sondehub.org/T0250239 - https://ra
PU1SDR-11T02502392021-07-24 13:26:30-22.7233-43.3222172157494Type=RS41-SGP f=403.050 MHz Clb=-3.3m/s t=-18.8C p=406.3hPa h=-1.0% batt=2.7V https://tracker.sondehub.org/T0250239 - https://ra
PU1SDR-11T02502392021-07-24 13:26:00-22.7221-43.3223182177592Type=RS41-SGP f=403.050 MHz Clb=-3.2m/s t=-19.5C p=-1.0hPa h=-1.0% batt=2.7V https://tracker.sondehub.org/T0250239 - https://rad
PU1SDR-11T02502392021-07-24 13:25:30-22.7206-43.3221192207692Type=RS41-SGP f=403.050 MHz Clb=-3.0m/s t=-273.0C p=-1.0hPa h=-1.0% batt=2.7V https://tracker.sondehub.org/T0250239 - https://ra
PU1SDR-11T02502392021-07-24 13:25:00-22.719-43.3215203227790Type=RS41-SGP f=403.050 MHz Clb=-2.8m/s t=-273.0C p=-1.0hPa h=-1.0% batt=2.7V https://tracker.sondehub.org/T0250239 - https://ra
PU1SDR-11T02502392021-07-24 13:24:30-22.7173-43.3207207267889Type=RS41 f=403.050 MHz Clb=-3.1m/s t=-273.0C p=-1.0hPa h=-1.0% batt=2.7V https://tracker.sondehub.org/T0250239 - https://radios
PU1SDR-11T02502392021-07-24 13:15:00-22.682-43.2741245359893Type=RS41-SGP f=403.050 MHz Clb=-3.5m/s t=-37.9C p=290.9hPa h=9.7% batt=2.6V https://tracker.sondehub.org/T0250239 - https://rad
PU1SDR-11T02502392021-07-24 13:14:30-22.681-43.2723233399972Type=RS41-SGP f=403.050 MHz Clb=-4.0m/s t=-38.4C p=287.7hPa h=7.0% batt=2.5V https://tracker.sondehub.org/T0250239 - https://rad
PU1SDR-11T02502392021-07-24 13:14:00-22.6788-43.26922313710107Type=RS41-SGP f=403.050 MHz Clb=-3.5m/s t=-39.6C p=282.0hPa h=7.5% batt=2.6V https://tracker.sondehub.org/T0250239 - https://rad
PU1SDR-11T02502392021-07-24 13:13:30-22.6774-43.26752253710189Type=RS41-SGP f=403.050 MHz Clb=-4.0m/s t=-40.4C p=278.7hPa h=7.7% batt=2.6V https://tracker.sondehub.org/T0250239 - https://rad
PU1SDR-11T02502392021-07-24 13:13:00-22.6753-43.26492193510308Type=RS41-SGP f=403.050 MHz Clb=-3.7m/s t=-41.5C p=273.9hPa h=7.6% batt=2.6V https://tracker.sondehub.org/T0250239 - https://rad
PU1SDR-11T02502392021-07-24 13:12:30-22.6732-43.2632153510410Type=RS41-SGP f=403.050 MHz Clb=-3.3m/s t=-42.4C p=269.8hPa h=7.3% batt=2.6V https://tracker.sondehub.org/T0250239 - https://rad
PU1SDR-11T02502392021-07-24 13:12:00-22.6707-43.26122104310522Type=RS41-SGP f=403.050 MHz Clb=-3.8m/s t=-43.4C p=265.4hPa h=7.2% batt=2.5V https://tracker.sondehub.org/T0250239 - https://rad
PU1SDR-11T02502392021-07-24 13:11:30-22.6681-43.25932184610628Type=RS41-SGP f=403.050 MHz Clb=-3.9m/s t=-44.1C p=261.2hPa h=6.8% batt=2.5V https://tracker.sondehub.org/T0250239 - https://rad
PU1SDR-11T02502392021-07-24 13:11:00-22.6654-43.25692214610743Type=RS41-SGP f=403.050 MHz Clb=-3.7m/s t=-44.8C p=256.8hPa h=8.1% batt=2.6V https://tracker.sondehub.org/T0250239 - https://rad
PU1SDR-11T02502392021-07-24 13:10:30-22.6628-43.25432234410855Type=RS41-SGP f=403.050 MHz Clb=-3.8m/s t=-45.8C p=252.5hPa h=11.3% batt=2.6V https://tracker.sondehub.org/T0250239 - https://ra
PU1SDR-11T02502392021-07-24 13:10:00-22.6604-43.25152224610968Type=RS41-SGP f=403.050 MHz Clb=-3.6m/s t=-46.7C p=248.3hPa h=11.2% batt=2.6V https://tracker.sondehub.org/T0250239 - https://ra
PU1SDR-11T02502392021-07-24 13:09:30-22.6578-43.24892224811083Type=RS41-SGP f=403.050 MHz Clb=-3.9m/s t=-47.7C p=244.1hPa h=8.6% batt=2.6V https://tracker.sondehub.org/T0250239 - https://rad
PU1SDR-11T02502392021-07-24 13:09:00-22.6547-43.24612185411199Type=RS41-SGP f=403.050 MHz Clb=-3.7m/s t=-48.4C p=239.8hPa h=8.2% batt=2.6V https://tracker.sondehub.org/T0250239 - https://rad
PU1SDR-11T02502392021-07-24 13:08:30-22.6516-43.24342205011317Type=RS41-SGP f=403.050 MHz Clb=-4.1m/s t=-49.5C p=235.5hPa h=8.8% batt=2.6V https://tracker.sondehub.org/T0250239 - https://rad
PU1SDR-11T02502392021-07-24 13:08:00-22.6486-43.24082184611435Type=RS41-SGP f=403.050 MHz Clb=-3.7m/s t=-50.2C p=231.3hPa h=8.3% batt=2.6V https://tracker.sondehub.org/T0250239 - https://rad
PU1SDR-11T02502392021-07-24 13:07:30-22.6457-43.23822174311558Type=RS41-SGP f=403.050 MHz Clb=-4.1m/s t=-51.0C p=227.0hPa h=7.8% batt=2.6V https://tracker.sondehub.org/T0250239 - https://rad
PU1SDR-11T02502392021-07-24 13:07:00-22.6435-43.23622232211689Type=RS41-SGP f=403.050 MHz Clb=-4.5m/s t=-51.2C p=222.5hPa h=7.1% batt=2.6V https://tracker.sondehub.org/T0250239 - https://rad
PU1SDR-11T02502392021-07-24 13:05:30-22.6438-43.23342781112162Type=RS41-SGP f=403.050 MHz Clb=-4.2m/s t=-53.0C p=206.9hPa h=6.2% batt=2.5V https://tracker.sondehub.org/T0250239 - https://rad
PU1SDR-11T02502392021-07-24 13:05:00-22.644-43.2332871712217Type=RS41-SGP f=403.050 MHz Clb=-4.5m/s t=-53.5C p=205.2hPa h=6.2% batt=2.5V https://tracker.sondehub.org/T0250239 - https://rad
PU1SDR-11T02502392021-07-24 13:04:00-22.6441-43.23112611312458Type=RS41-SGP f=403.050 MHz Clb=-5.0m/s t=-55.4C p=197.6hPa h=7.4% batt=2.5V https://tracker.sondehub.org/T0250239 - https://rad
PU1SDR-11T02502392021-07-24 13:03:30-22.6441-43.22982751712596Type=RS41-SGP f=403.050 MHz Clb=-4.4m/s t=-56.7C p=193.4hPa h=7.1% batt=2.6V https://tracker.sondehub.org/T0250239 - https://rad
PU1SDR-11T02502392021-07-24 13:03:00-22.6443-43.22822851512738Type=RS41-SGP f=403.050 MHz Clb=-4.4m/s t=-57.3C p=189.2hPa h=5.7% batt=2.5V https://tracker.sondehub.org/T0250239 - https://rad
PU1SDR-11T02502392021-07-24 13:01:30-22.6441-43.2295912013235Type=RS41-SGP f=403.050 MHz Clb=-4.7m/s t=-57.4C p=174.9hPa h=4.7% batt=2.5V https://tracker.sondehub.org/T0250239 - https://rad
PU1SDR-11T02502392021-07-24 13:01:00-22.644-43.22991102813263Type=RS41-SGP f=403.050 MHz Clb=-4.7m/s t=-57.6C p=174.2hPa h=4.8% batt=2.5V https://tracker.sondehub.org/T0250239 - https://rad
PU1SDR-11T02502392021-07-24 13:00:00-22.6442-43.2346592613529Type=RS41-SGP f=403.050 MHz Clb=-4.8m/s t=-59.4C p=166.9hPa h=5.6% batt=2.5V https://tracker.sondehub.org/T0250239 - https://rad
PU1SDR-11T02502392021-07-24 12:59:30-22.6452-43.2362551513663Type=RS41-SGP f=403.050 MHz Clb=-5.2m/s t=-59.9C p=163.4hPa h=5.9% batt=2.5V https://tracker.sondehub.org/T0250239 - https://rad
PU1SDR-11T02502392021-07-24 12:59:00-22.646-43.23759913811Type=RS41-SGP f=403.050 MHz Clb=-4.8m/s t=-60.8C p=159.6hPa h=6.3% batt=2.5V https://tracker.sondehub.org/T0250239 - https://rad
PU1SDR-11T02502392021-07-24 12:58:30-22.6469-43.23743561913949Type=RS41-SGP f=403.050 MHz Clb=-5.1m/s t=-61.7C p=156.1hPa h=6.5% batt=2.5V https://tracker.sondehub.org/T0250239 - https://rad
PU1SDR-11T02502392021-07-24 12:58:00-22.6484-43.2378172014097Type=RS41-SGP f=403.050 MHz Clb=-4.6m/s t=-62.3C p=152.4hPa h=6.6% batt=2.6V https://tracker.sondehub.org/T0250239 - https://rad
PU1SDR-11T02502392021-07-24 12:57:30-22.65-43.2386302414240Type=RS41-SGP f=403.050 MHz Clb=-4.7m/s t=-63.6C p=148.9hPa h=6.8% batt=2.5V https://tracker.sondehub.org/T0250239 - https://rad
PU1SDR-11T02502392021-07-24 12:56:00-22.6583-43.2438306314701Type=RS41-SGP f=403.050 MHz Clb=-5.0m/s t=-63.5C p=138.2hPa h=4.8% batt=2.7V https://tracker.sondehub.org/T0250239 - https://rad
PU1SDR-11T02502392021-07-24 12:55:00-22.6689-43.248556315034Type=RS41-SGP f=403.050 MHz Clb=-5.3m/s t=-64.3C p=130.9hPa h=5.3% batt=2.7V https://tracker.sondehub.org/T0250239 - https://rad
PU1SDR-11T02502392021-07-24 12:54:00-22.68-43.24823535415434Type=RS41-SGP f=403.050 MHz Clb=-5.5m/s t=-66.4C p=122.6hPa h=6.8% batt=2.5V https://tracker.sondehub.org/T0250239 - https://rad
PU1SDR-11T02502392021-07-24 12:53:30-22.6814-43.24813565615488Type=RS41-SGP f=403.050 MHz Clb=-5.4m/s t=-66.4C p=121.5hPa h=6.8% batt=2.5V https://tracker.sondehub.org/T0250239 - https://rad
PU1SDR-11T02502392021-07-24 12:53:00-22.6859-43.24805715654Type=RS41-SGP f=403.050 MHz Clb=-5.3m/s t=-67.0C p=118.3hPa h=7.5% batt=2.5V https://tracker.sondehub.org/T0250239 - https://rad
PU1SDR-11T02502392021-07-24 12:52:00-22.6945-43.2473535915973Type=RS41-SGP f=403.050 MHz Clb=-5.3m/s t=-67.8C p=112.2hPa h=7.9% batt=2.7V https://tracker.sondehub.org/T0250239 - https://rad
PU1SDR-11T02502392021-07-24 12:51:30-22.6999-43.24633527016157Type=RS41-SGP f=403.050 MHz Clb=-5.5m/s t=-69.0C p=108.8hPa h=8.1% batt=2.7V https://tracker.sondehub.org/T0250239 - https://rad
PU1SDR-11T02502392021-07-24 12:51:00-22.705-43.24553516116349Type=RS41-SGP f=403.050 MHz Clb=-5.7m/s t=-69.9C p=105.4hPa h=7.9% batt=2.6V https://tracker.sondehub.org/T0250239 - https://rad
PU1SDR-11T02502392021-07-24 12:50:30-22.708-43.2453574416493Type=RS41-SGP f=403.050 MHz Clb=-5.9m/s t=-70.7C p=102.8hPa h=7.6% batt=2.7V https://tracker.sondehub.org/T0250239 - https://rad
PU1SDR-11T02502392021-07-24 12:50:00-22.7109-43.2458513716685Type=RS41-SGP f=403.050 MHz Clb=-5.9m/s t=-69.4C p=99.6hPa h=7.4% batt=2.7V https://tracker.sondehub.org/T0250239 - https://radi
PU1SDR-11T02502392021-07-24 12:49:00-22.7138-43.2519534817071Type=RS41-SGP f=403.050 MHz Clb=-6.1m/s t=-71.2C p=93.3hPa h=7.1% batt=2.7V https://tracker.sondehub.org/T0250239 - https://radi
PU1SDR-11T02502392021-07-24 12:48:00-22.7194-43.2554134317426Type=RS41-SGP f=403.050 MHz Clb=-6.2m/s t=-72.5C p=87.9hPa h=6.5% batt=2.5V https://tracker.sondehub.org/T0250239 - https://radi
PU1SDR-11T02502392021-07-24 12:47:30-22.7216-43.255931917617Type=RS41-SGP f=403.050 MHz Clb=-6.3m/s t=-72.4C p=85.1hPa h=5.7% batt=2.7V https://tracker.sondehub.org/T0250239 - https://radi
PU1SDR-11T02502392021-07-24 12:47:00-22.7226-43.2565672217827Type=RS41-SGP f=403.050 MHz Clb=-6.4m/s t=-72.6C p=82.2hPa h=5.5% batt=2.7V https://tracker.sondehub.org/T0250239 - https://radi
PU1SDR-11T02502392021-07-24 12:46:30-22.7237-43.2585453918015Type=RS41-SGP f=403.050 MHz Clb=-6.7m/s t=-71.6C p=79.6hPa h=5.0% batt=2.7V https://tracker.sondehub.org/T0250239 - https://radi
PU1SDR-11T02502392021-07-24 12:45:30-22.732-43.25983442218578Type=RS41-SGP f=403.050 MHz Clb=-7.0m/s t=-71.3C p=72.4hPa h=4.2% batt=2.6V https://tracker.sondehub.org/T0250239 - https://radi
PU1SDR-11T02502392021-07-24 12:45:00-22.7327-43.2599302018650Type=RS41-SGP f=403.050 MHz Clb=-6.8m/s t=-71.5C p=71.5hPa h=4.6% batt=2.7V https://tracker.sondehub.org/T0250239 - https://radi
PU1SDR-11T02502392021-07-24 12:44:00-22.7356-43.2614433119083Type=RS41-SGP f=403.050 MHz Clb=-7.2m/s t=-69.7C p=66.5hPa h=3.4% batt=2.7V https://tracker.sondehub.org/T0250239 - https://radi
PU1SDR-11T02502392021-07-24 12:43:30-22.7375-43.262413019307Type=RS41-SGP f=403.050 MHz Clb=-7.9m/s t=-70.3C p=64.0hPa h=3.5% batt=2.6V https://tracker.sondehub.org/T0250239 - https://radi
PU1SDR-11T02502392021-07-24 12:43:00-22.7389-43.262171119539Type=RS41-SGP f=403.050 MHz Clb=-8.0m/s t=-69.7C p=61.6hPa h=3.5% batt=2.7V https://tracker.sondehub.org/T0250239 - https://radi
PU1SDR-11T02502392021-07-24 12:42:30-22.7405-43.26223301519799Type=RS41-SGP f=403.050 MHz Clb=-8.7m/s t=-66.1C p=59.0hPa h=2.7% batt=2.6V https://tracker.sondehub.org/T0250239 - https://radi
PU1SDR-11T02502392021-07-24 12:42:00-22.7405-43.2621267420046Type=RS41-SGP f=403.050 MHz Clb=-8.1m/s t=-65.0C p=56.7hPa h=2.4% batt=2.7V https://tracker.sondehub.org/T0250239 - https://radi
PU1SDR-11T02502392021-07-24 12:41:30-22.741-43.262213720301Type=RS41-SGP f=403.050 MHz Clb=-8.5m/s t=-64.5C p=54.4hPa h=2.4% batt=2.7V https://tracker.sondehub.org/T0250239 - https://radi
PU1SDR-11T02502392021-07-24 12:41:00-22.7412-43.2633802820571Type=RS41-SGP f=403.050 MHz Clb=-10.3m/s t=-62.1C p=52.1hPa h=-1.0% batt=2.6V https://tracker.sondehub.org/T0250239 - https://ra
PU1SDR-11T02502392021-07-24 12:40:00-22.7432-43.265522721155Type=RS41 f=403.050 MHz Clb=-13.4m/s t=-273.0C p=-1.0hPa h=-1.0% batt=2.6V https://tracker.sondehub.org/T0250239 - https://radio
PU1SDR-11T02502392021-07-24 12:39:30-22.7442-43.26553621662Type=RS41 f=403.050 MHz Clb=-13.1m/s t=-273.0C p=-1.0hPa h=-1.0% batt=2.7V https://tracker.sondehub.org/T0250239 - https://radio
PU1SDR-11T02502392021-07-24 12:39:00-22.7441-43.2659881322310Type=RS41 f=403.050 MHz Clb=-19.3m/s t=-273.0C p=-1.0hPa h=-1.0% batt=2.7V https://tracker.sondehub.org/T0250239 - https://radio
PU1SDR-11T02502392021-07-24 12:29:00-22.7499-43.294521322238Type=RS41-SGP f=403.050 MHz Clb=5.5m/s t=-60.0C p=39.8hPa h=1.5% batt=2.6V https://tracker.sondehub.org/T0250239 - https://radio
PU1SDR-11T02502392021-07-24 12:28:00-22.7491-43.2946138421853Type=RS41-SGP f=403.050 MHz Clb=5.8m/s t=-59.0C p=42.3hPa h=1.5% batt=2.7V https://tracker.sondehub.org/T0250239 - https://radio
PU1SDR-11T02502392021-07-24 12:27:30-22.7492-43.2945337921651Type=RS41 f=403.050 MHz Clb=3.9m/s t=-59.2C p=-1.0hPa h=1.5% batt=2.7V https://tracker.sondehub.org/T0250239 - https://radiosond
PU1SDR-11T02502392021-07-24 12:27:00-22.7504-43.29443502621453Type=RS41 f=403.050 MHz Clb=7.9m/s t=-273.0C p=-1.0hPa h=-1.0% batt=2.7V https://tracker.sondehub.org/T0250239 - https://radioso
PU1SDR-11T02502392021-07-24 12:26:30-22.7518-43.294225921212Type=RS41 f=403.050 MHz Clb=9.4m/s t=-273.0C p=-1.0hPa h=-1.0% batt=2.7V https://tracker.sondehub.org/T0250239 - https://radioso
PU1SDR-11T02502392021-07-24 12:26:00-22.753-43.2943331521020Type=RS41 f=403.050 MHz Clb=3.4m/s t=-273.0C p=-1.0hPa h=-1.0% batt=2.6V https://tracker.sondehub.org/T0250239 - https://radioso
PU1SDR-11T02502392021-07-24 12:25:30-22.7546-43.2952472820847Type=RS41 f=403.050 MHz Clb=5.6m/s t=-273.0C p=-1.0hPa h=-1.0% batt=2.7V https://tracker.sondehub.org/T0250239 - https://radioso
PU1SDR-11T02502392021-07-24 12:17:30-22.7762-43.306450717715Type=RS41-SGP f=403.050 MHz Clb=6.2m/s t=-72.1C p=83.6hPa h=7.8% batt=2.7V https://tracker.sondehub.org/T0250239 - https://radio
PU1SDR-11T02502392021-07-24 12:17:00-22.7771-43.30673501917551Type=RS41-SGP f=403.050 MHz Clb=5.2m/s t=-71.8C p=86.0hPa h=7.7% batt=2.8V https://tracker.sondehub.org/T0250239 - https://radio
PU1SDR-11T02502392021-07-24 12:16:00-22.7829-43.3086384817158Type=RS41-SGP f=403.050 MHz Clb=5.9m/s t=-72.0C p=91.8hPa h=7.9% batt=2.7V https://tracker.sondehub.org/T0250239 - https://radio
PU1SDR-11T02502392021-07-24 12:15:30-22.785-43.3111543716951Type=RS41-SGP f=403.050 MHz Clb=6.6m/s t=-70.4C p=95.1hPa h=7.3% batt=2.7V https://tracker.sondehub.org/T0250239 - https://radio
PU1SDR-11T02502392021-07-24 12:15:00-22.7869-43.315353116694Type=RS41-SGP f=403.050 MHz Clb=6.8m/s t=-69.1C p=99.3hPa h=7.0% batt=2.8V https://tracker.sondehub.org/T0250239 - https://radio
PU1SDR-11T02502392021-07-24 12:14:30-22.7884-43.315984616559Type=RS41-SGP f=403.050 MHz Clb=5.6m/s t=-70.4C p=101.5hPa h=7.3% batt=2.8V https://tracker.sondehub.org/T0250239 - https://radi
PU1SDR-11T02502392021-07-24 12:14:00-22.7921-43.3163515016378Type=RS41-SGP f=403.050 MHz Clb=3.9m/s t=-70.2C p=104.7hPa h=7.5% batt=2.8V https://tracker.sondehub.org/T0250239 - https://radi
PU1SDR-11T02502392021-07-24 12:13:00-22.8031-43.31483575615969Type=RS41-SGP f=403.050 MHz Clb=7.6m/s t=-68.0C p=112.0hPa h=6.6% batt=2.7V https://tracker.sondehub.org/T0250239 - https://radi
PU1SDR-11T02502392021-07-24 12:11:30-22.8167-43.31443506315451Type=RS41-SGP f=403.050 MHz Clb=4.4m/s t=-66.7C p=122.1hPa h=5.6% batt=2.8V https://tracker.sondehub.org/T0250239 - https://radi
PU1SDR-11T02502392021-07-24 12:10:00-22.8326-43.3169287814870Type=RS41-SGP f=403.050 MHz Clb=6.4m/s t=-64.5C p=134.2hPa h=6.3% batt=2.8V https://tracker.sondehub.org/T0250239 - https://radi
PU1SDR-11T02502392021-07-24 12:09:30-22.838-43.3203344314615Type=RS41-SGP f=403.050 MHz Clb=6.0m/s t=-65.2C p=139.9hPa h=7.6% batt=2.7V https://tracker.sondehub.org/T0250239 - https://radi
PU1SDR-11T02502392021-07-24 12:09:00-22.8401-43.3219113114443Type=RS41-SGP f=403.050 MHz Clb=6.6m/s t=-65.3C p=143.9hPa h=7.7% batt=2.7V https://tracker.sondehub.org/T0250239 - https://radi
PU1SDR-11T02502392021-07-24 12:08:00-22.8436-43.324142814105Type=RS41-SGP f=403.050 MHz Clb=3.7m/s t=-62.7C p=152.1hPa h=6.5% batt=2.8V https://tracker.sondehub.org/T0250239 - https://radi
PU1SDR-11T02502392021-07-24 12:07:30-22.8449-43.3244541113886Type=RS41-SGP f=403.050 MHz Clb=3.9m/s t=-61.6C p=157.6hPa h=6.1% batt=2.8V https://tracker.sondehub.org/T0250239 - https://radi
PU1SDR-11T02502392021-07-24 12:07:00-22.8452-43.3248721513760Type=RS41-SGP f=403.050 MHz Clb=5.5m/s t=-60.6C p=160.8hPa h=5.3% batt=2.7V https://tracker.sondehub.org/T0250239 - https://radi
PU1SDR-11T02502392021-07-24 12:06:30-22.8454-43.3265762013523Type=RS41-SGP f=403.050 MHz Clb=3.5m/s t=-58.7C p=166.9hPa h=4.6% batt=2.8V https://tracker.sondehub.org/T0250239 - https://radi
PU1SDR-11T02502392021-07-24 12:06:00-22.8455-43.3276951713425Type=RS41-SGP f=403.050 MHz Clb=3.8m/s t=-57.9C p=169.5hPa h=4.4% batt=2.7V https://tracker.sondehub.org/T0250239 - https://radi
PU1SDR-11T02502392021-07-24 12:05:30-22.8454-43.33772213168Type=RS41-SGP f=403.050 MHz Clb=7.7m/s t=-56.5C p=176.4hPa h=4.6% batt=2.9V https://tracker.sondehub.org/T0250239 - https://radi
PU1SDR-11T02502392021-07-24 12:05:00-22.8457-43.331241712996Type=RS41-SGP f=403.050 MHz Clb=7.1m/s t=-57.1C p=181.3hPa h=6.3% batt=2.9V https://tracker.sondehub.org/T0250239 - https://radi
PU1SDR-11T02502392021-07-24 12:04:00-22.8471-43.3299354712582Type=RS41-SGP f=403.050 MHz Clb=5.3m/s t=-57.0C p=193.6hPa h=8.6% batt=2.7V https://tracker.sondehub.org/T0250239 - https://radi
PU1SDR-11T02502392021-07-24 12:03:30-22.8475-43.329457612282Type=RS41-SGP f=403.050 MHz Clb=5.2m/s t=-54.7C p=202.9hPa h=7.8% batt=2.9V https://tracker.sondehub.org/T0250239 - https://radi
PU1SDR-11T02502392021-07-24 12:03:00-22.8478-43.32913471912171Type=RS41-SGP f=403.050 MHz Clb=4.2m/s t=-53.9C p=206.5hPa h=8.2% batt=2.9V https://tracker.sondehub.org/T0250239 - https://radi
PU1SDR-11T02502392021-07-24 12:02:00-22.8455-43.32751993911627Type=RS41-SGP f=403.050 MHz Clb=9.3m/s t=-51.7C p=224.5hPa h=9.5% batt=2.8V https://tracker.sondehub.org/T0250239 - https://radi
PU1SDR-11T02502392021-07-24 12:01:30-22.8438-43.32632144111496Type=RS41-SGP f=403.050 MHz Clb=7.6m/s t=-50.5C p=229.1hPa h=8.8% batt=2.9V https://tracker.sondehub.org/T0250239 - https://radi
PU1SDR-11T02502392021-07-24 12:01:00-22.841-43.32442104811323Type=RS41-SGP f=403.050 MHz Clb=4.5m/s t=-49.3C p=235.2hPa h=10.0% batt=2.9V https://tracker.sondehub.org/T0250239 - https://rad
PU1SDR-11T02502392021-07-24 12:00:00-22.8351-43.31972354610952Type=RS41-SGP f=403.050 MHz Clb=6.2m/s t=-46.4C p=248.6hPa h=10.1% batt=2.8V https://tracker.sondehub.org/T0250239 - https://rad
PU1SDR-11T02502392021-07-24 11:59:30-22.8327-43.31722173910769Type=RS41-SGP f=403.050 MHz Clb=2.7m/s t=-45.1C p=255.5hPa h=7.2% batt=2.9V https://tracker.sondehub.org/T0250239 - https://radi
PU1SDR-11T02502392021-07-24 11:59:00-22.8302-43.31532183710568Type=RS41-SGP f=403.050 MHz Clb=6.9m/s t=-43.5C p=263.5hPa h=7.5% batt=2.9V https://tracker.sondehub.org/T0250239 - https://radi
PU1SDR-11T02502392021-07-24 11:58:30-22.8277-43.31322133010370Type=RS41-SGP f=403.050 MHz Clb=6.8m/s t=-41.8C p=271.3hPa h=8.0% batt=2.9V https://tracker.sondehub.org/T0250239 - https://radi
PU1SDR-11T02502392021-07-24 11:58:00-22.8259-43.3112373510183Type=RS41-SGP f=403.050 MHz Clb=8.6m/s t=-40.2C p=278.6hPa h=8.9% batt=2.9V https://tracker.sondehub.org/T0250239 - https://radi
PU1SDR-11T02502392021-07-24 11:57:30-22.8247-43.3087255229990Type=RS41-SGP f=403.050 MHz Clb=9.2m/s t=-38.6C p=286.7hPa h=9.5% batt=2.9V https://tracker.sondehub.org/T0250239 - https://radi
PU1SDR-11T02502392021-07-24 11:57:00-22.824-43.3063255419801Type=RS41-SGP f=403.050 MHz Clb=4.8m/s t=-37.1C p=294.6hPa h=10.5% batt=2.9V https://tracker.sondehub.org/T0250239 - https://rad
PU1SDR-11T02502392021-07-24 11:56:30-22.8236-43.3038245359630Type=RS41-SGP f=403.050 MHz Clb=3.4m/s t=-36.2C p=301.8hPa h=19.1% batt=2.8V https://tracker.sondehub.org/T0250239 - https://rad
PU1SDR-11T02502392021-07-24 11:56:00-22.8235-43.3008272509441Type=RS41-SGP f=403.050 MHz Clb=3.9m/s t=-34.6C p=310.3hPa h=21.4% batt=2.9V https://tracker.sondehub.org/T0250239 - https://rad
PU1SDR-11T02502392021-07-24 11:55:30-22.8228-43.298242489242Type=RS41-SGP f=403.050 MHz Clb=5.5m/s t=-32.8C p=319.3hPa h=13.9% batt=2.9V https://tracker.sondehub.org/T0250239 - https://rad
PU1SDR-11T02502392021-07-24 11:55:00-22.8219-43.2952250339039Type=RS41-SGP f=403.050 MHz Clb=8.2m/s t=-31.2C p=328.3hPa h=10.6% batt=2.8V https://tracker.sondehub.org/T0250239 - https://rad
PU1SDR-11T02502392021-07-24 11:54:30-22.82-43.2924245438840Type=RS41-SGP f=403.050 MHz Clb=7.0m/s t=-29.4C p=337.8hPa h=3.5% batt=2.8V https://tracker.sondehub.org/T0250239 - https://radi
PU1SDR-11T02502392021-07-24 11:54:00-22.8183-43.29234488689Type=RS41-SGP f=403.050 MHz Clb=7.9m/s t=-28.1C p=344.8hPa h=3.0% batt=2.9V https://tracker.sondehub.org/T0250239 - https://radi
PU1SDR-11T02502392021-07-24 11:53:30-22.8163-43.2867252308466Type=RS41-SGP f=403.050 MHz Clb=7.4m/s t=-26.7C p=355.6hPa h=3.5% batt=2.9V https://tracker.sondehub.org/T0250239 - https://radi
PU1SDR-11T02502392021-07-24 11:53:00-22.8153-43.2835227208206Type=RS41-SGP f=403.050 MHz Clb=10.0m/s t=-25.1C p=368.6hPa h=2.9% batt=2.9V https://tracker.sondehub.org/T0250239 - https://rad
PU1SDR-11T02502392021-07-24 11:52:30-22.8146-43.2826225248126Type=RS41-SGP f=403.050 MHz Clb=5.1m/s t=-24.3C p=372.8hPa h=2.7% batt=2.9V https://tracker.sondehub.org/T0250239 - https://radi
PU1SDR-11T02502392021-07-24 11:52:00-22.8132-43.2812201197978Type=RS41-SGP f=403.050 MHz Clb=4.8m/s t=-22.9C p=380.5hPa h=2.5% batt=2.9V https://tracker.sondehub.org/T0250239 - https://radi
PU1SDR-11T02502392021-07-24 11:51:30-22.8116-43.280118267802Type=RS41-SGP f=403.050 MHz Clb=7.3m/s t=-21.3C p=389.5hPa h=2.3% batt=2.8V https://tracker.sondehub.org/T0250239 - https://radi
PU1SDR-11T02502392021-07-24 11:51:00-22.8102-43.2793177267617Type=RS41-SGP f=403.050 MHz Clb=4.3m/s t=-19.6C p=399.4hPa h=2.3% batt=2.9V https://tracker.sondehub.org/T0250239 - https://radi
PU1SDR-11T02502392021-07-24 11:50:30-22.809-43.2789210317419Type=RS41-SGP f=403.050 MHz Clb=6.7m/s t=-18.6C p=410.2hPa h=2.4% batt=2.9V https://tracker.sondehub.org/T0250239 - https://radi
PU1SDR-11T02502392021-07-24 11:50:00-22.8081-43.2789125137218Type=RS41-SGP f=403.050 MHz Clb=6.1m/s t=-17.5C p=421.2hPa h=3.2% batt=2.9V https://tracker.sondehub.org/T0250239 - https://radi
PU1SDR-11T02502392021-07-24 11:49:30-22.8079-43.279481117030Type=RS41-SGP f=403.050 MHz Clb=5.7m/s t=-16.3C p=431.9hPa h=7.9% batt=3.0V https://tracker.sondehub.org/T0250239 - https://radi
PU1SDR-11T02502392021-07-24 11:49:00-22.8085-43.280499196869Type=RS41-SGP f=403.050 MHz Clb=6.7m/s t=-14.9C p=441.2hPa h=11.2% batt=2.9V https://tracker.sondehub.org/T0250239 - https://rad
PU1SDR-11T02502392021-07-24 11:48:30-22.8091-43.2815108116664Type=RS41-SGP f=403.050 MHz Clb=5.3m/s t=-12.9C p=453.4hPa h=10.5% batt=2.9V https://tracker.sondehub.org/T0250239 - https://rad
PU1SDR-11T02502392021-07-24 11:48:00-22.8092-43.282693116455Type=RS41-SGP f=403.050 MHz Clb=10.3m/s t=-11.0C p=465.8hPa h=5.9% batt=2.9V https://tracker.sondehub.org/T0250239 - https://rad
PU1SDR-11T02502392021-07-24 11:47:30-22.8094-43.283636226243Type=RS41-SGP f=403.050 MHz Clb=6.5m/s t=-10.1C p=478.8hPa h=1.9% batt=3.0V https://tracker.sondehub.org/T0250239 - https://radi
PU1SDR-11T02502392021-07-24 11:47:00-22.8102-43.28477116054Type=RS41-SGP f=403.050 MHz Clb=6.6m/s t=-9.0C p=490.5hPa h=1.8% batt=3.0V https://tracker.sondehub.org/T0250239 - https://radio
PU1SDR-11T02502392021-07-24 11:46:30-22.8109-43.284943205856Type=RS41-SGP f=403.050 MHz Clb=5.5m/s t=-7.8C p=503.2hPa h=1.8% batt=3.0V https://tracker.sondehub.org/T0250239 - https://radio
PU1SDR-11T02502392021-07-24 11:46:00-22.8117-43.285714175662Type=RS41-SGP f=403.050 MHz Clb=7.7m/s t=-6.2C p=516.0hPa h=1.7% batt=3.0V https://tracker.sondehub.org/T0250239 - https://radio
PU1SDR-11T02502392021-07-24 11:45:30-22.8131-43.286116265463Type=RS41-SGP f=403.050 MHz Clb=7.5m/s t=-5.0C p=529.1hPa h=2.7% batt=3.0V https://tracker.sondehub.org/T0250239 - https://radio
PU1SDR-11T02502392021-07-24 11:45:00-22.815-43.28662245272Type=RS41-SGP f=403.050 MHz Clb=8.6m/s t=-3.3C p=542.2hPa h=2.6% batt=3.0V https://tracker.sondehub.org/T0250239 - https://radio
PU1SDR-11T02502392021-07-24 11:44:30-22.8172-43.28675305058Type=RS41-SGP f=403.050 MHz Clb=8.2m/s t=-2.3C p=556.8hPa h=1.8% batt=3.0V https://tracker.sondehub.org/T0250239 - https://radio
PU1SDR-11T02502392021-07-24 11:44:00-22.8184-43.2863348154850Type=RS41-SGP f=403.050 MHz Clb=8.2m/s t=-1.9C p=571.6hPa h=2.5% batt=3.0V https://tracker.sondehub.org/T0250239 - https://radio
PU1SDR-11T02502392021-07-24 11:43:30-22.8195-43.2861335204655Type=RS41-SGP f=403.050 MHz Clb=4.9m/s t=-0.8C p=585.8hPa h=2.6% batt=2.9V https://tracker.sondehub.org/T0250239 - https://radio
PU1SDR-11T02502392021-07-24 11:43:00-22.8207-43.2857349154460Type=RS41-SGP f=403.050 MHz Clb=8.5m/s t=0.4C p=600.2hPa h=2.8% batt=3.0V https://tracker.sondehub.org/T0250239 - https://radios
PU1SDR-11T02502392021-07-24 11:42:30-22.8214-43.285716824270Type=RS41-SGP f=403.050 MHz Clb=6.3m/s t=1.4C p=-1.0hPa h=3.0% batt=3.0V https://tracker.sondehub.org/T0250239 - https://radioso
PU1SDR-11T02502392021-07-24 11:42:00-22.8217-43.2854296134076Type=RS41-SGP f=403.050 MHz Clb=4.8m/s t=2.4C p=-1.0hPa h=-1.0% batt=3.0V https://tracker.sondehub.org/T0250239 - https://radios
PU1SDR-11T02502392021-07-24 11:41:30-22.8221-43.2844269133880Type=RS41 f=403.050 MHz Clb=6.8m/s t=3.4C p=-1.0hPa h=-1.0% batt=3.0V https://tracker.sondehub.org/T0250239 - https://radiosondy